sensor_id;sensor_type;location;lat;lon;timestamp;P1;durP1;ratioP1;P2;durP2;ratioP2
39098;SDS011;24844;52.380;7.018;2023-04-22T00:00:26;21.75;;;14.75;;
39098;SDS011;24844;52.380;7.018;2023-04-22T00:02:52;19.55;;;15.00;;
39098;SDS011;24844;52.380;7.018;2023-04-22T00:05:20;18.77;;;14.88;;
39098;SDS011;24844;52.380;7.018;2023-04-22T00:07:46;21.25;;;16.83;;
39098;SDS011;24844;52.380;7.018;2023-04-22T00:10:11;24.63;;;17.80;;
39098;SDS011;24844;52.380;7.018;2023-04-22T00:12:37;26.38;;;18.40;;
39098;SDS011;24844;52.380;7.018;2023-04-22T00:15:03;26.15;;;18.92;;
39098;SDS011;24844;52.380;7.018;2023-04-22T00:17:29;26.08;;;17.90;;
39098;SDS011;24844;52.380;7.018;2023-04-22T00:19:55;29.77;;;16.75;;
39098;SDS011;24844;52.380;7.018;2023-04-22T00:22:21;29.85;;;17.92;;
39098;SDS011;24844;52.380;7.018;2023-04-22T00:24:46;33.28;;;17.38;;
39098;SDS011;24844;52.380;7.018;2023-04-22T00:27:12;27.33;;;17.75;;
39098;SDS011;24844;52.380;7.018;2023-04-22T00:29:37;25.45;;;17.48;;
39098;SDS011;24844;52.380;7.018;2023-04-22T00:32:03;24.75;;;18.10;;
39098;SDS011;24844;52.380;7.018;2023-04-22T00:34:29;80.65;;;19.10;;
39098;SDS011;24844;52.380;7.018;2023-04-22T00:36:54;24.17;;;16.88;;
39098;SDS011;24844;52.380;7.018;2023-04-22T00:39:21;29.50;;;16.88;;
39098;SDS011;24844;52.380;7.018;2023-04-22T00:41:46;29.50;;;17.30;;
39098;SDS011;24844;52.380;7.018;2023-04-22T00:44:13;20.48;;;15.65;;
39098;SDS011;24844;52.380;7.018;2023-04-22T00:46:38;21.17;;;16.27;;
39098;SDS011;24844;52.380;7.018;2023-04-22T00:49:05;34.75;;;18.48;;
39098;SDS011;24844;52.380;7.018;2023-04-22T00:51:31;30.30;;;16.13;;
39098;SDS011;24844;52.380;7.018;2023-04-22T00:53:57;27.70;;;17.15;;
39098;SDS011;24844;52.380;7.018;2023-04-22T00:56:26;28.55;;;19.75;;
39098;SDS011;24844;52.380;7.018;2023-04-22T00:58:52;30.15;;;18.08;;
39098;SDS011;24844;52.380;7.018;2023-04-22T01:01:19;29.63;;;19.23;;
39098;SDS011;24844;52.380;7.018;2023-04-22T01:03:46;130.25;;;27.42;;
39098;SDS011;24844;52.380;7.018;2023-04-22T01:06:13;147.57;;;29.67;;
39098;SDS011;24844;52.380;7.018;2023-04-22T01:08:40;72.68;;;19.10;;
39098;SDS011;24844;52.380;7.018;2023-04-22T01:11:06;46.03;;;15.93;;
39098;SDS011;24844;52.380;7.018;2023-04-22T01:13:31;44.63;;;19.27;;
39098;SDS011;24844;52.380;7.018;2023-04-22T01:15:57;32.70;;;16.45;;
39098;SDS011;24844;52.380;7.018;2023-04-22T01:18:25;38.43;;;15.30;;
39098;SDS011;24844;52.380;7.018;2023-04-22T01:20:51;55.25;;;17.15;;
39098;SDS011;24844;52.380;7.018;2023-04-22T01:23:20;20.70;;;14.88;;
39098;SDS011;24844;52.380;7.018;2023-04-22T01:25:47;22.83;;;11.80;;
39098;SDS011;24844;52.380;7.018;2023-04-22T01:28:13;14.52;;;10.80;;
39098;SDS011;24844;52.380;7.018;2023-04-22T01:30:40;92.68;;;17.50;;
39098;SDS011;24844;52.380;7.018;2023-04-22T01:33:07;106.38;;;17.92;;
39098;SDS011;24844;52.380;7.018;2023-04-22T01:35:34;59.30;;;16.00;;
39098;SDS011;24844;52.380;7.018;2023-04-22T01:38:04;43.35;;;14.35;;
39098;SDS011;24844;52.380;7.018;2023-04-22T01:40:32;170.10;;;21.65;;
39098;SDS011;24844;52.380;7.018;2023-04-22T01:42:58;190.98;;;24.65;;
39098;SDS011;24844;52.380;7.018;2023-04-22T01:45:25;311.65;;;32.17;;
39098;SDS011;24844;52.380;7.018;2023-04-22T01:47:51;110.68;;;19.85;;
39098;SDS011;24844;52.380;7.018;2023-04-22T01:50:17;70.00;;;17.33;;
39098;SDS011;24844;52.380;7.018;2023-04-22T01:52:43;157.30;;;29.33;;
39098;SDS011;24844;52.380;7.018;2023-04-22T01:55:08;54.47;;;22.70;;
39098;SDS011;24844;52.380;7.018;2023-04-22T01:57:34;251.73;;;32.80;;
39098;SDS011;24844;52.380;7.018;2023-04-22T02:00:00;116.72;;;23.60;;
39098;SDS011;24844;52.380;7.018;2023-04-22T02:02:26;39.80;;;22.60;;
39098;SDS011;24844;52.380;7.018;2023-04-22T02:04:52;31.90;;;19.75;;
39098;SDS011;24844;52.380;7.018;2023-04-22T02:07:17;47.72;;;25.58;;
39098;SDS011;24844;52.380;7.018;2023-04-22T02:09:43;36.53;;;22.80;;
39098;SDS011;24844;52.380;7.018;2023-04-22T02:12:08;44.63;;;27.40;;
39098;SDS011;24844;52.380;7.018;2023-04-22T02:14:34;581.95;;;44.63;;
39098;SDS011;24844;52.380;7.018;2023-04-22T02:16:59;207.73;;;31.73;;
39098;SDS011;24844;52.380;7.018;2023-04-22T02:19:26;75.63;;;18.73;;
39098;SDS011;24844;52.380;7.018;2023-04-22T02:21:52;48.95;;;11.00;;
39098;SDS011;24844;52.380;7.018;2023-04-22T02:24:18;141.23;;;16.13;;
39098;SDS011;24844;52.380;7.018;2023-04-22T02:26:43;57.35;;;9.88;;
39098;SDS011;24844;52.380;7.018;2023-04-22T02:29:11;97.57;;;14.45;;
39098;SDS011;24844;52.380;7.018;2023-04-22T02:31:37;57.03;;;10.07;;
39098;SDS011;24844;52.380;7.018;2023-04-22T02:34:02;65.22;;;13.15;;
39098;SDS011;24844;52.380;7.018;2023-04-22T02:36:28;21.33;;;9.10;;
39098;SDS011;24844;52.380;7.018;2023-04-22T02:38:54;19.70;;;9.63;;
39098;SDS011;24844;52.380;7.018;2023-04-22T02:41:19;29.85;;;14.73;;
39098;SDS011;24844;52.380;7.018;2023-04-22T02:43:45;17.60;;;13.50;;
39098;SDS011;24844;52.380;7.018;2023-04-22T02:46:11;17.10;;;12.63;;
39098;SDS011;24844;52.380;7.018;2023-04-22T02:48:38;15.32;;;11.63;;
39098;SDS011;24844;52.380;7.018;2023-04-22T02:51:03;20.80;;;15.10;;
39098;SDS011;24844;52.380;7.018;2023-04-22T02:53:30;21.48;;;15.63;;
39098;SDS011;24844;52.380;7.018;2023-04-22T02:55:56;17.42;;;13.90;;
39098;SDS011;24844;52.380;7.018;2023-04-22T02:58:22;13.27;;;10.98;;
39098;SDS011;24844;52.380;7.018;2023-04-22T03:00:48;20.60;;;15.32;;
39098;SDS011;24844;52.380;7.018;2023-04-22T03:03:14;17.85;;;14.82;;
39098;SDS011;24844;52.380;7.018;2023-04-22T03:05:39;16.05;;;13.52;;
39098;SDS011;24844;52.380;7.018;2023-04-22T03:08:05;12.82;;;11.45;;
39098;SDS011;24844;52.380;7.018;2023-04-22T03:10:30;11.05;;;9.93;;
39098;SDS011;24844;52.380;7.018;2023-04-22T03:12:56;13.90;;;11.55;;
39098;SDS011;24844;52.380;7.018;2023-04-22T03:15:22;12.18;;;10.88;;
39098;SDS011;24844;52.380;7.018;2023-04-22T03:17:48;14.43;;;11.95;;
39098;SDS011;24844;52.380;7.018;2023-04-22T03:20:13;13.00;;;11.60;;
39098;SDS011;24844;52.380;7.018;2023-04-22T03:22:39;14.43;;;12.50;;
39098;SDS011;24844;52.380;7.018;2023-04-22T03:25:05;16.52;;;13.05;;
39098;SDS011;24844;52.380;7.018;2023-04-22T03:27:31;12.60;;;10.75;;
39098;SDS011;24844;52.380;7.018;2023-04-22T03:29:57;17.85;;;13.30;;
39098;SDS011;24844;52.380;7.018;2023-04-22T03:32:23;17.42;;;14.35;;
39098;SDS011;24844;52.380;7.018;2023-04-22T03:34:48;24.20;;;16.52;;
39098;SDS011;24844;52.380;7.018;2023-04-22T03:37:14;26.05;;;17.90;;
39098;SDS011;24844;52.380;7.018;2023-04-22T03:39:40;29.55;;;17.73;;
39098;SDS011;24844;52.380;7.018;2023-04-22T03:42:06;22.98;;;16.00;;
39098;SDS011;24844;52.380;7.018;2023-04-22T03:44:31;24.67;;;15.85;;
39098;SDS011;24844;52.380;7.018;2023-04-22T03:46:57;23.98;;;16.35;;
39098;SDS011;24844;52.380;7.018;2023-04-22T03:49:22;23.27;;;16.92;;
39098;SDS011;24844;52.380;7.018;2023-04-22T03:51:48;28.70;;;19.10;;
39098;SDS011;24844;52.380;7.018;2023-04-22T03:54:13;25.58;;;17.60;;
39098;SDS011;24844;52.380;7.018;2023-04-22T03:56:39;28.30;;;19.55;;
39098;SDS011;24844;52.380;7.018;2023-04-22T03:59:05;32.92;;;21.55;;
39098;SDS011;24844;52.380;7.018;2023-04-22T04:01:30;27.27;;;19.50;;
39098;SDS011;24844;52.380;7.018;2023-04-22T04:03:56;24.67;;;18.95;;
39098;SDS011;24844;52.380;7.018;2023-04-22T04:06:21;29.42;;;20.02;;
39098;SDS011;24844;52.380;7.018;2023-04-22T04:08:47;26.65;;;19.27;;
39098;SDS011;24844;52.380;7.018;2023-04-22T04:11:13;17.95;;;14.07;;
39098;SDS011;24844;52.380;7.018;2023-04-22T04:13:38;31.48;;;18.33;;
39098;SDS011;24844;52.380;7.018;2023-04-22T04:16:04;26.98;;;18.65;;
39098;SDS011;24844;52.380;7.018;2023-04-22T04:18:30;34.05;;;20.92;;
39098;SDS011;24844;52.380;7.018;2023-04-22T04:20:56;30.58;;;20.02;;
39098;SDS011;24844;52.380;7.018;2023-04-22T04:23:22;24.50;;;17.75;;
39098;SDS011;24844;52.380;7.018;2023-04-22T04:25:47;24.77;;;18.13;;
39098;SDS011;24844;52.380;7.018;2023-04-22T04:28:13;31.88;;;22.05;;
39098;SDS011;24844;52.380;7.018;2023-04-22T04:30:39;32.15;;;22.00;;
39098;SDS011;24844;52.380;7.018;2023-04-22T04:33:05;32.58;;;24.00;;
39098;SDS011;24844;52.380;7.018;2023-04-22T04:35:34;37.10;;;26.98;;
39098;SDS011;24844;52.380;7.018;2023-04-22T04:38:02;38.90;;;27.58;;
39098;SDS011;24844;52.380;7.018;2023-04-22T04:40:28;29.15;;;23.23;;
39098;SDS011;24844;52.380;7.018;2023-04-22T04:42:54;32.17;;;25.70;;
39098;SDS011;24844;52.380;7.018;2023-04-22T04:45:21;39.47;;;28.38;;
39098;SDS011;24844;52.380;7.018;2023-04-22T04:47:47;40.72;;;28.40;;
39098;SDS011;24844;52.380;7.018;2023-04-22T04:50:16;38.70;;;25.60;;
39098;SDS011;24844;52.380;7.018;2023-04-22T04:52:44;32.67;;;23.02;;
39098;SDS011;24844;52.380;7.018;2023-04-22T04:55:10;37.17;;;25.30;;
39098;SDS011;24844;52.380;7.018;2023-04-22T04:57:36;35.47;;;24.70;;
39098;SDS011;24844;52.380;7.018;2023-04-22T05:00:01;38.90;;;25.15;;
39098;SDS011;24844;52.380;7.018;2023-04-22T05:02:27;39.33;;;25.63;;
39098;SDS011;24844;52.380;7.018;2023-04-22T05:04:53;33.38;;;23.85;;
39098;SDS011;24844;52.380;7.018;2023-04-22T05:07:18;36.83;;;24.25;;
39098;SDS011;24844;52.380;7.018;2023-04-22T05:09:44;32.47;;;22.90;;
39098;SDS011;24844;52.380;7.018;2023-04-22T05:12:10;35.80;;;24.88;;
39098;SDS011;24844;52.380;7.018;2023-04-22T05:14:35;23.35;;;18.27;;
39098;SDS011;24844;52.380;7.018;2023-04-22T05:17:01;37.35;;;27.35;;
39098;SDS011;24844;52.380;7.018;2023-04-22T05:19:27;43.70;;;29.67;;
39098;SDS011;24844;52.380;7.018;2023-04-22T05:21:52;43.72;;;28.63;;
39098;SDS011;24844;52.380;7.018;2023-04-22T05:24:18;39.83;;;27.67;;
39098;SDS011;24844;52.380;7.018;2023-04-22T05:26:43;40.78;;;27.75;;
39098;SDS011;24844;52.380;7.018;2023-04-22T05:29:09;40.25;;;27.80;;
39098;SDS011;24844;52.380;7.018;2023-04-22T05:31:34;37.63;;;27.08;;
39098;SDS011;24844;52.380;7.018;2023-04-22T05:34:00;37.95;;;27.08;;
39098;SDS011;24844;52.380;7.018;2023-04-22T05:36:26;40.72;;;26.65;;
39098;SDS011;24844;52.380;7.018;2023-04-22T05:38:51;46.28;;;28.10;;
39098;SDS011;24844;52.380;7.018;2023-04-22T05:41:17;62.92;;;28.73;;
39098;SDS011;24844;52.380;7.018;2023-04-22T05:43:43;46.88;;;31.75;;
39098;SDS011;24844;52.380;7.018;2023-04-22T05:46:08;36.28;;;27.48;;
39098;SDS011;24844;52.380;7.018;2023-04-22T05:48:34;45.33;;;32.28;;
39098;SDS011;24844;52.380;7.018;2023-04-22T05:50:59;48.65;;;33.03;;
39098;SDS011;24844;52.380;7.018;2023-04-22T05:53:25;46.28;;;30.23;;
39098;SDS011;24844;52.380;7.018;2023-04-22T05:55:51;53.20;;;32.03;;
39098;SDS011;24844;52.380;7.018;2023-04-22T05:58:17;48.67;;;30.95;;
39098;SDS011;24844;52.380;7.018;2023-04-22T06:00:42;41.25;;;29.75;;
39098;SDS011;24844;52.380;7.018;2023-04-22T06:03:08;40.42;;;30.33;;
39098;SDS011;24844;52.380;7.018;2023-04-22T06:05:34;41.85;;;29.15;;
39098;SDS011;24844;52.380;7.018;2023-04-22T06:07:59;40.80;;;27.50;;
39098;SDS011;24844;52.380;7.018;2023-04-22T06:10:25;39.58;;;29.77;;
39098;SDS011;24844;52.380;7.018;2023-04-22T06:12:50;46.25;;;31.52;;
39098;SDS011;24844;52.380;7.018;2023-04-22T06:15:16;43.95;;;31.67;;
39098;SDS011;24844;52.380;7.018;2023-04-22T06:17:41;43.15;;;29.60;;
39098;SDS011;24844;52.380;7.018;2023-04-22T06:20:08;46.05;;;32.80;;
39098;SDS011;24844;52.380;7.018;2023-04-22T06:22:34;37.58;;;29.88;;
39098;SDS011;24844;52.380;7.018;2023-04-22T06:25:00;40.33;;;30.52;;
39098;SDS011;24844;52.380;7.018;2023-04-22T06:27:26;29.23;;;23.15;;
39098;SDS011;24844;52.380;7.018;2023-04-22T06:29:52;699.30;;;53.58;;
39098;SDS011;24844;52.380;7.018;2023-04-22T06:32:17;38.15;;;31.05;;
39098;SDS011;24844;52.380;7.018;2023-04-22T06:34:43;32.63;;;25.85;;
39098;SDS011;24844;52.380;7.018;2023-04-22T06:37:08;34.92;;;29.45;;
39098;SDS011;24844;52.380;7.018;2023-04-22T06:39:34;35.55;;;28.95;;
39098;SDS011;24844;52.380;7.018;2023-04-22T06:42:00;34.60;;;27.08;;
39098;SDS011;24844;52.380;7.018;2023-04-22T06:44:25;32.45;;;25.90;;
39098;SDS011;24844;52.380;7.018;2023-04-22T06:46:51;32.55;;;26.08;;
39098;SDS011;24844;52.380;7.018;2023-04-22T06:49:16;28.75;;;25.00;;
39098;SDS011;24844;52.380;7.018;2023-04-22T06:51:42;27.48;;;24.13;;
39098;SDS011;24844;52.380;7.018;2023-04-22T06:54:08;25.05;;;21.70;;
39098;SDS011;24844;52.380;7.018;2023-04-22T06:56:33;24.70;;;20.98;;
39098;SDS011;24844;52.380;7.018;2023-04-22T06:59:00;26.83;;;22.10;;
39098;SDS011;24844;52.380;7.018;2023-04-22T07:01:25;27.92;;;21.83;;
39098;SDS011;24844;52.380;7.018;2023-04-22T07:03:51;24.40;;;20.80;;
39098;SDS011;24844;52.380;7.018;2023-04-22T07:06:16;22.10;;;19.40;;
39098;SDS011;24844;52.380;7.018;2023-04-22T07:08:42;21.35;;;18.52;;
39098;SDS011;24844;52.380;7.018;2023-04-22T07:11:08;21.40;;;19.02;;
39098;SDS011;24844;52.380;7.018;2023-04-22T07:13:34;22.55;;;18.48;;
39098;SDS011;24844;52.380;7.018;2023-04-22T07:15:59;19.75;;;16.88;;
39098;SDS011;24844;52.380;7.018;2023-04-22T07:18:25;18.20;;;16.30;;
39098;SDS011;24844;52.380;7.018;2023-04-22T07:20:52;19.58;;;16.67;;
39098;SDS011;24844;52.380;7.018;2023-04-22T07:23:17;21.73;;;16.70;;
39098;SDS011;24844;52.380;7.018;2023-04-22T07:25:43;19.38;;;15.88;;
39098;SDS011;24844;52.380;7.018;2023-04-22T07:28:09;16.70;;;14.88;;
39098;SDS011;24844;52.380;7.018;2023-04-22T07:30:34;16.08;;;14.02;;
39098;SDS011;24844;52.380;7.018;2023-04-22T07:33:00;14.75;;;13.15;;
39098;SDS011;24844;52.380;7.018;2023-04-22T07:35:25;14.02;;;12.60;;
39098;SDS011;24844;52.380;7.018;2023-04-22T07:37:52;18.05;;;13.07;;
39098;SDS011;24844;52.380;7.018;2023-04-22T07:40:18;14.68;;;13.07;;
39098;SDS011;24844;52.380;7.018;2023-04-22T07:42:44;14.10;;;11.88;;
39098;SDS011;24844;52.380;7.018;2023-04-22T07:45:10;11.70;;;10.57;;
39098;SDS011;24844;52.380;7.018;2023-04-22T07:47:36;10.90;;;9.35;;
39098;SDS011;24844;52.380;7.018;2023-04-22T07:50:01;13.52;;;9.82;;
39098;SDS011;24844;52.380;7.018;2023-04-22T07:52:27;13.27;;;9.77;;
39098;SDS011;24844;52.380;7.018;2023-04-22T07:54:54;12.63;;;8.27;;
39098;SDS011;24844;52.380;7.018;2023-04-22T07:57:20;38.10;;;9.77;;
39098;SDS011;24844;52.380;7.018;2023-04-22T07:59:46;11.25;;;8.10;;
39098;SDS011;24844;52.380;7.018;2023-04-22T08:02:15;8.90;;;6.55;;
39098;SDS011;24844;52.380;7.018;2023-04-22T08:04:41;8.23;;;7.32;;
39098;SDS011;24844;52.380;7.018;2023-04-22T08:07:07;7.15;;;6.25;;
39098;SDS011;24844;52.380;7.018;2023-04-22T08:09:32;8.07;;;6.60;;
39098;SDS011;24844;52.380;7.018;2023-04-22T08:11:58;6.97;;;6.28;;
39098;SDS011;24844;52.380;7.018;2023-04-22T08:14:23;16.48;;;7.28;;
39098;SDS011;24844;52.380;7.018;2023-04-22T08:16:52;6.93;;;6.22;;
39098;SDS011;24844;52.380;7.018;2023-04-22T08:19:18;8.27;;;5.75;;
39098;SDS011;24844;52.380;7.018;2023-04-22T08:21:44;7.40;;;5.38;;
39098;SDS011;24844;52.380;7.018;2023-04-22T08:24:10;7.57;;;5.38;;
39098;SDS011;24844;52.380;7.018;2023-04-22T08:26:36;6.00;;;5.40;;
39098;SDS011;24844;52.380;7.018;2023-04-22T08:29:04;5.75;;;4.93;;
39098;SDS011;24844;52.380;7.018;2023-04-22T08:31:29;5.57;;;4.25;;
39098;SDS011;24844;52.380;7.018;2023-04-22T08:33:55;6.18;;;4.60;;
39098;SDS011;24844;52.380;7.018;2023-04-22T08:36:21;6.28;;;4.47;;
39098;SDS011;24844;52.380;7.018;2023-04-22T08:38:49;4.70;;;4.30;;
39098;SDS011;24844;52.380;7.018;2023-04-22T08:41:15;5.80;;;4.20;;
39098;SDS011;24844;52.380;7.018;2023-04-22T08:43:42;4.97;;;3.97;;
39098;SDS011;24844;52.380;7.018;2023-04-22T08:46:09;4.93;;;3.78;;
39098;SDS011;24844;52.380;7.018;2023-04-22T08:48:35;4.85;;;3.90;;
39098;SDS011;24844;52.380;7.018;2023-04-22T08:51:01;5.05;;;4.15;;
39098;SDS011;24844;52.380;7.018;2023-04-22T08:53:27;6.40;;;3.88;;
39098;SDS011;24844;52.380;7.018;2023-04-22T08:55:54;4.80;;;4.20;;
39098;SDS011;24844;52.380;7.018;2023-04-22T08:58:21;4.53;;;3.60;;
39098;SDS011;24844;52.380;7.018;2023-04-22T09:00:47;6.00;;;3.78;;
39098;SDS011;24844;52.380;7.018;2023-04-22T09:03:13;4.03;;;3.63;;
39098;SDS011;24844;52.380;7.018;2023-04-22T09:05:40;4.65;;;4.03;;
39098;SDS011;24844;52.380;7.018;2023-04-22T09:08:06;4.50;;;3.70;;
39098;SDS011;24844;52.380;7.018;2023-04-22T09:10:32;4.75;;;3.70;;
39098;SDS011;24844;52.380;7.018;2023-04-22T09:13:00;4.82;;;4.00;;
39098;SDS011;24844;52.380;7.018;2023-04-22T09:15:27;4.80;;;3.95;;
39098;SDS011;24844;52.380;7.018;2023-04-22T09:17:53;4.55;;;3.20;;
39098;SDS011;24844;52.380;7.018;2023-04-22T09:20:19;5.55;;;3.95;;
39098;SDS011;24844;52.380;7.018;2023-04-22T09:22:51;5.30;;;3.58;;
39098;SDS011;24844;52.380;7.018;2023-04-22T09:25:18;5.43;;;3.78;;
39098;SDS011;24844;52.380;7.018;2023-04-22T09:27:48;4.45;;;3.33;;
39098;SDS011;24844;52.380;7.018;2023-04-22T09:30:15;6.72;;;4.00;;
39098;SDS011;24844;52.380;7.018;2023-04-22T09:32:50;4.13;;;3.67;;
39098;SDS011;24844;52.380;7.018;2023-04-22T09:35:21;5.90;;;4.53;;
39098;SDS011;24844;52.380;7.018;2023-04-22T09:37:50;9.98;;;4.35;;
39098;SDS011;24844;52.380;7.018;2023-04-22T09:40:17;5.18;;;4.45;;
39098;SDS011;24844;52.380;7.018;2023-04-22T09:42:50;6.25;;;4.85;;
39098;SDS011;24844;52.380;7.018;2023-04-22T09:45:50;6.53;;;5.22;;
39098;SDS011;24844;52.380;7.018;2023-04-22T09:48:16;6.10;;;4.50;;
39098;SDS011;24844;52.380;7.018;2023-04-22T09:50:47;5.63;;;4.47;;
39098;SDS011;24844;52.380;7.018;2023-04-22T09:53:15;7.82;;;5.45;;
39098;SDS011;24844;52.380;7.018;2023-04-22T09:55:44;5.13;;;4.38;;
39098;SDS011;24844;52.380;7.018;2023-04-22T09:58:15;4.97;;;4.40;;
39098;SDS011;24844;52.380;7.018;2023-04-22T10:00:49;6.88;;;4.60;;
39098;SDS011;24844;52.380;7.018;2023-04-22T10:03:17;5.95;;;4.15;;
39098;SDS011;24844;52.380;7.018;2023-04-22T10:05:43;6.63;;;4.43;;
39098;SDS011;24844;52.380;7.018;2023-04-22T10:08:10;5.63;;;4.85;;
39098;SDS011;24844;52.380;7.018;2023-04-22T10:10:37;8.68;;;4.47;;
39098;SDS011;24844;52.380;7.018;2023-04-22T10:13:03;8.15;;;4.40;;
39098;SDS011;24844;52.380;7.018;2023-04-22T10:15:36;5.82;;;4.03;;
39098;SDS011;24844;52.380;7.018;2023-04-22T10:18:04;5.05;;;3.80;;
39098;SDS011;24844;52.380;7.018;2023-04-22T10:20:32;6.28;;;3.90;;
39098;SDS011;24844;52.380;7.018;2023-04-22T10:23:02;4.50;;;3.67;;
39098;SDS011;24844;52.380;7.018;2023-04-22T10:25:29;5.00;;;3.65;;
39098;SDS011;24844;52.380;7.018;2023-04-22T10:28:05;6.30;;;3.38;;
39098;SDS011;24844;52.380;7.018;2023-04-22T10:30:36;4.95;;;3.70;;
39098;SDS011;24844;52.380;7.018;2023-04-22T10:38:34;4.90;;;3.50;;
39098;SDS011;24844;52.380;7.018;2023-04-22T10:41:04;5.97;;;4.05;;
39098;SDS011;24844;52.380;7.018;2023-04-22T10:43:39;5.57;;;3.70;;
39098;SDS011;24844;52.380;7.018;2023-04-22T10:46:05;5.63;;;3.75;;
39098;SDS011;24844;52.380;7.018;2023-04-22T10:48:47;6.63;;;4.30;;
39098;SDS011;24844;52.380;7.018;2023-04-22T10:54:05;4.43;;;3.60;;
39098;SDS011;24844;52.380;7.018;2023-04-22T10:56:31;4.03;;;3.63;;
39098;SDS011;24844;52.380;7.018;2023-04-22T10:58:56;5.50;;;4.03;;
39098;SDS011;24844;52.380;7.018;2023-04-22T11:01:22;4.70;;;4.20;;
39098;SDS011;24844;52.380;7.018;2023-04-22T11:03:51;6.68;;;4.03;;
39098;SDS011;24844;52.380;7.018;2023-04-22T11:06:18;5.93;;;4.18;;
39098;SDS011;24844;52.380;7.018;2023-04-22T11:08:49;5.85;;;3.67;;
39098;SDS011;24844;52.380;7.018;2023-04-22T11:11:31;6.38;;;3.78;;
39098;SDS011;24844;52.380;7.018;2023-04-22T11:13:56;4.75;;;4.25;;
39098;SDS011;24844;52.380;7.018;2023-04-22T11:16:22;4.65;;;4.10;;
39098;SDS011;24844;52.380;7.018;2023-04-22T11:18:48;5.05;;;4.30;;
39098;SDS011;24844;52.380;7.018;2023-04-22T11:21:14;5.15;;;4.30;;
39098;SDS011;24844;52.380;7.018;2023-04-22T11:23:48;5.38;;;4.45;;
39098;SDS011;24844;52.380;7.018;2023-04-22T11:26:15;5.55;;;4.68;;
39098;SDS011;24844;52.380;7.018;2023-04-22T11:28:45;6.38;;;4.75;;
39098;SDS011;24844;52.380;7.018;2023-04-22T11:31:11;6.93;;;5.10;;
39098;SDS011;24844;52.380;7.018;2023-04-22T11:33:36;5.13;;;4.60;;
39098;SDS011;24844;52.380;7.018;2023-04-22T11:38:34;6.05;;;4.43;;
39098;SDS011;24844;52.380;7.018;2023-04-22T11:41:00;8.20;;;4.32;;
39098;SDS011;24844;52.380;7.018;2023-04-22T11:43:25;10.20;;;4.53;;
39098;SDS011;24844;52.380;7.018;2023-04-22T11:45:53;8.02;;;4.32;;
39098;SDS011;24844;52.380;7.018;2023-04-22T11:48:19;5.55;;;3.90;;
39098;SDS011;24844;52.380;7.018;2023-04-22T11:50:45;5.28;;;3.90;;
39098;SDS011;24844;52.380;7.018;2023-04-22T11:53:21;6.55;;;4.18;;
39098;SDS011;24844;52.380;7.018;2023-04-22T11:55:49;9.60;;;3.67;;
39098;SDS011;24844;52.380;7.018;2023-04-22T11:58:16;4.40;;;3.20;;
39098;SDS011;24844;52.380;7.018;2023-04-22T12:00:50;4.88;;;3.33;;
39098;SDS011;24844;52.380;7.018;2023-04-22T12:03:21;3.22;;;2.45;;
39098;SDS011;24844;52.380;7.018;2023-04-22T12:05:52;4.15;;;2.70;;
39098;SDS011;24844;52.380;7.018;2023-04-22T12:08:23;3.97;;;2.83;;
39098;SDS011;24844;52.380;7.018;2023-04-22T12:10:57;2.90;;;2.58;;
39098;SDS011;24844;52.380;7.018;2023-04-22T12:13:25;3.22;;;2.80;;
39098;SDS011;24844;52.380;7.018;2023-04-22T12:15:54;7.70;;;3.00;;
39098;SDS011;24844;52.380;7.018;2023-04-22T12:18:29;4.03;;;2.90;;
39098;SDS011;24844;52.380;7.018;2023-04-22T12:20:59;4.05;;;2.95;;
39098;SDS011;24844;52.380;7.018;2023-04-22T12:26:07;6.65;;;2.70;;
39098;SDS011;24844;52.380;7.018;2023-04-22T12:28:33;3.38;;;2.65;;
39098;SDS011;24844;52.380;7.018;2023-04-22T12:30:58;3.55;;;2.50;;
39098;SDS011;24844;52.380;7.018;2023-04-22T12:33:24;3.50;;;2.58;;
39098;SDS011;24844;52.380;7.018;2023-04-22T12:35:50;4.72;;;2.38;;
39098;SDS011;24844;52.380;7.018;2023-04-22T12:38:16;4.18;;;2.28;;
39098;SDS011;24844;52.380;7.018;2023-04-22T12:40:42;7.55;;;2.72;;
39098;SDS011;24844;52.380;7.018;2023-04-22T12:43:09;4.03;;;2.35;;
39098;SDS011;24844;52.380;7.018;2023-04-22T12:45:34;4.45;;;2.25;;
39098;SDS011;24844;52.380;7.018;2023-04-22T12:48:00;4.68;;;2.90;;
39098;SDS011;24844;52.380;7.018;2023-04-22T12:50:26;4.40;;;2.13;;
39098;SDS011;24844;52.380;7.018;2023-04-22T12:52:51;3.33;;;2.30;;
39098;SDS011;24844;52.380;7.018;2023-04-22T12:55:17;2.80;;;2.20;;
39098;SDS011;24844;52.380;7.018;2023-04-22T12:57:44;2.63;;;2.15;;
39098;SDS011;24844;52.380;7.018;2023-04-22T13:00:10;3.08;;;2.58;;
39098;SDS011;24844;52.380;7.018;2023-04-22T13:02:40;3.38;;;2.40;;
39098;SDS011;24844;52.380;7.018;2023-04-22T13:05:07;5.05;;;2.33;;
39098;SDS011;24844;52.380;7.018;2023-04-22T13:07:34;3.22;;;2.58;;
39098;SDS011;24844;52.380;7.018;2023-04-22T13:09:59;4.32;;;2.40;;
39098;SDS011;24844;52.380;7.018;2023-04-22T13:12:25;3.17;;;2.45;;
39098;SDS011;24844;52.380;7.018;2023-04-22T13:14:50;5.88;;;2.95;;
39098;SDS011;24844;52.380;7.018;2023-04-22T13:17:16;3.00;;;2.50;;
39098;SDS011;24844;52.380;7.018;2023-04-22T13:19:42;6.28;;;2.50;;
39098;SDS011;24844;52.380;7.018;2023-04-22T13:22:07;3.67;;;2.50;;
39098;SDS011;24844;52.380;7.018;2023-04-22T13:24:33;5.78;;;2.60;;
39098;SDS011;24844;52.380;7.018;2023-04-22T13:26:58;3.30;;;2.33;;
39098;SDS011;24844;52.380;7.018;2023-04-22T13:29:25;4.28;;;3.00;;
39098;SDS011;24844;52.380;7.018;2023-04-22T13:31:51;4.97;;;2.67;;
39098;SDS011;24844;52.380;7.018;2023-04-22T13:34:16;3.80;;;2.80;;
39098;SDS011;24844;52.380;7.018;2023-04-22T13:36:42;4.85;;;3.05;;
39098;SDS011;24844;52.380;7.018;2023-04-22T13:39:07;5.57;;;2.70;;
39098;SDS011;24844;52.380;7.018;2023-04-22T13:41:33;3.10;;;2.80;;
39098;SDS011;24844;52.380;7.018;2023-04-22T13:44:00;3.25;;;2.90;;
39098;SDS011;24844;52.380;7.018;2023-04-22T13:46:28;5.22;;;2.70;;
39098;SDS011;24844;52.380;7.018;2023-04-22T13:48:53;4.20;;;2.70;;
39098;SDS011;24844;52.380;7.018;2023-04-22T13:51:20;7.13;;;3.08;;
39098;SDS011;24844;52.380;7.018;2023-04-22T13:53:46;4.38;;;2.92;;
39098;SDS011;24844;52.380;7.018;2023-04-22T13:56:12;9.68;;;3.20;;
39098;SDS011;24844;52.380;7.018;2023-04-22T13:58:38;5.35;;;3.00;;
39098;SDS011;24844;52.380;7.018;2023-04-22T14:01:07;5.43;;;2.80;;
39098;SDS011;24844;52.380;7.018;2023-04-22T14:03:34;6.38;;;2.95;;
39098;SDS011;24844;52.380;7.018;2023-04-22T14:06:00;3.47;;;2.67;;
39098;SDS011;24844;52.380;7.018;2023-04-22T14:08:27;3.10;;;2.72;;
39098;SDS011;24844;52.380;7.018;2023-04-22T14:10:53;4.80;;;3.00;;
39098;SDS011;24844;52.380;7.018;2023-04-22T14:13:19;7.15;;;2.90;;
39098;SDS011;24844;52.380;7.018;2023-04-22T14:15:45;4.70;;;2.85;;
39098;SDS011;24844;52.380;7.018;2023-04-22T14:18:11;5.20;;;3.08;;
39098;SDS011;24844;52.380;7.018;2023-04-22T14:20:37;3.85;;;3.35;;
39098;SDS011;24844;52.380;7.018;2023-04-22T14:23:02;4.18;;;2.88;;
39098;SDS011;24844;52.380;7.018;2023-04-22T14:25:29;3.95;;;2.90;;
39098;SDS011;24844;52.380;7.018;2023-04-22T14:27:55;5.60;;;3.03;;
39098;SDS011;24844;52.380;7.018;2023-04-22T14:30:21;5.30;;;3.10;;
39098;SDS011;24844;52.380;7.018;2023-04-22T14:32:47;4.90;;;3.08;;
39098;SDS011;24844;52.380;7.018;2023-04-22T14:35:14;5.18;;;3.28;;
39098;SDS011;24844;52.380;7.018;2023-04-22T14:37:39;6.68;;;3.10;;
39098;SDS011;24844;52.380;7.018;2023-04-22T14:40:07;5.93;;;2.80;;
39098;SDS011;24844;52.380;7.018;2023-04-22T14:42:33;3.85;;;2.90;;